createdAt,value
2018-06-01T00:00:22.843Z,80.37
2018-06-01T00:02:51.966Z,76.07
2018-06-01T00:05:21.080Z,75.07
2018-06-01T00:07:50.210Z,80.20
2018-06-01T00:10:19.456Z,75.30
2018-06-01T00:12:48.526Z,75.10
2018-06-01T00:15:17.698Z,75.17
2018-06-01T00:17:46.826Z,76.97
2018-06-01T00:20:15.964Z,88.40
2018-06-01T00:22:45.120Z,87.43
2018-06-01T00:25:14.276Z,81.70
2018-06-01T00:27:43.345Z,76.77
2018-06-01T00:30:12.514Z,79.47
2018-06-01T00:32:41.685Z,81.00
2018-06-01T00:35:10.822Z,76.77
2018-06-01T00:37:39.969Z,75.53
2018-06-01T00:40:09.113Z,78.07
2018-06-01T00:42:38.225Z,74.37
2018-06-01T00:45:07.403Z,75.90
2018-06-01T00:47:36.584Z,75.07
2018-06-01T00:50:05.714Z,78.77
2018-06-01T00:52:34.864Z,77.53
2018-06-01T00:55:09.934Z,78.87
2018-06-01T00:57:39.070Z,78.30
2018-06-01T01:00:08.657Z,75.97
2018-06-01T01:02:37.809Z,77.73
2018-06-01T01:05:06.976Z,77.17
2018-06-01T01:07:36.124Z,77.97
2018-06-01T01:10:05.241Z,76.00
2018-06-01T01:12:34.385Z,76.77
2018-06-01T01:15:03.528Z,76.60
2018-06-01T01:17:32.664Z,76.00
2018-06-01T01:20:01.826Z,78.97
2018-06-01T01:22:30.940Z,77.87
2018-06-01T01:25:00.058Z,76.93
2018-06-01T01:27:29.196Z,75.60
2018-06-01T01:29:58.339Z,78.40
2018-06-01T01:32:27.473Z,82.67
2018-06-01T01:34:56.622Z,77.33
2018-06-01T01:37:30.587Z,77.07
2018-06-01T01:40:00.195Z,76.00
2018-06-01T01:42:29.347Z,76.27
2018-06-01T01:44:58.476Z,75.27
2018-06-01T01:47:27.630Z,75.20
2018-06-01T01:49:56.741Z,75.70
2018-06-01T01:52:25.875Z,77.33
2018-06-01T01:54:55.060Z,77.00
2018-06-01T01:57:24.175Z,74.80
2018-06-01T01:59:53.301Z,77.50
2018-06-01T02:02:22.472Z,75.30
2018-06-01T02:04:51.604Z,74.57
2018-06-01T02:07:20.754Z,78.67
2018-06-01T02:09:49.887Z,76.07
2018-06-01T02:12:18.998Z,77.80
2018-06-01T02:14:48.163Z,77.23
2018-06-01T02:17:17.308Z,80.40
2018-06-01T02:19:46.424Z,78.67
2018-06-01T02:22:15.559Z,78.07
2018-06-01T02:24:44.712Z,79.00
2018-06-01T02:27:13.840Z,76.07
2018-06-01T02:29:43.087Z,75.30
2018-06-01T02:32:12.254Z,77.00
2018-06-01T02:34:41.386Z,82.83
2018-06-01T02:37:10.522Z,76.00
2018-06-01T02:39:39.704Z,76.53
2018-06-01T02:42:08.846Z,77.80
2018-06-01T02:44:37.989Z,78.23
2018-06-01T02:47:07.196Z,75.70
2018-06-01T02:49:36.335Z,76.23
2018-06-01T02:52:05.468Z,74.80
2018-06-01T02:54:34.600Z,74.60
2018-06-01T02:57:03.757Z,76.00
2018-06-01T02:59:32.860Z,75.17
2018-06-01T03:02:02.019Z,75.17
2018-06-01T03:04:31.180Z,75.37
2018-06-01T03:07:18.124Z,76.60
2018-06-01T03:09:47.247Z,76.47
2018-06-01T03:12:16.394Z,78.23
2018-06-01T03:14:45.574Z,75.87
2018-06-01T03:17:14.687Z,76.77
2018-06-01T03:19:43.819Z,76.93
2018-06-01T03:22:12.978Z,75.77
2018-06-01T03:24:42.086Z,77.90
2018-06-01T03:27:11.214Z,76.97
2018-06-01T03:29:40.397Z,78.10
2018-06-01T03:32:09.927Z,76.90
2018-06-01T03:34:39.041Z,77.27
2018-06-01T03:37:08.208Z,89.30
2018-06-01T03:39:37.331Z,78.17
2018-06-01T03:42:07.056Z,81.10
2018-06-01T03:44:36.206Z,78.87
2018-06-01T03:47:05.328Z,76.07
2018-06-01T03:49:34.500Z,76.60
2018-06-01T03:52:03.668Z,76.70
2018-06-01T03:54:32.810Z,79.83
2018-06-01T03:57:01.984Z,78.70
2018-06-01T03:59:31.101Z,76.70
2018-06-01T04:02:00.278Z,81.33
2018-06-01T04:04:29.435Z,81.37
2018-06-01T04:06:58.570Z,82.77
2018-06-01T04:09:27.708Z,78.77
2018-06-01T04:11:56.821Z,75.90
2018-06-01T04:14:25.968Z,77.97
2018-06-01T04:16:55.143Z,75.57
2018-06-01T04:19:24.287Z,80.60
2018-06-01T04:21:53.400Z,78.07
2018-06-01T04:24:22.572Z,77.40
2018-06-01T04:26:51.696Z,76.87
2018-06-01T04:29:20.836Z,76.40
2018-06-01T04:31:50.020Z,76.27
2018-06-01T04:34:19.132Z,76.67
2018-06-01T04:36:48.244Z,77.30
2018-06-01T04:39:17.384Z,76.87
2018-06-01T04:41:46.545Z,76.07
2018-06-01T04:44:16.039Z,77.50
2018-06-01T04:46:45.178Z,77.67
2018-06-01T04:49:14.335Z,77.10
2018-06-01T04:51:43.468Z,79.50
2018-06-01T04:54:13.076Z,74.17
2018-06-01T04:56:42.229Z,76.67
2018-06-01T04:59:11.345Z,75.63
2018-06-01T05:01:40.567Z,72.60
2018-06-01T05:04:09.706Z,73.37
2018-06-01T05:06:38.859Z,76.40
2018-06-01T05:09:08.006Z,82.10
2018-06-01T05:11:37.150Z,76.77
2018-06-01T05:14:06.296Z,76.40
2018-06-01T05:16:35.456Z,77.13
2018-06-01T05:19:04.608Z,77.20
2018-06-01T05:21:33.755Z,78.67
2018-06-01T05:24:02.868Z,76.47
2018-06-01T05:26:32.013Z,77.00
2018-06-01T05:29:01.185Z,78.80
2018-06-01T05:31:30.324Z,77.40
2018-06-01T05:33:59.433Z,79.97
2018-06-01T05:36:28.610Z,82.00
2018-06-01T05:38:57.802Z,79.20
2018-06-01T05:41:26.951Z,81.33
2018-06-01T05:43:56.080Z,80.77
2018-06-01T05:46:25.234Z,82.93
2018-06-01T05:48:54.347Z,78.43
2018-06-01T05:51:23.499Z,81.77
2018-06-01T05:53:52.657Z,82.80
2018-06-01T05:56:21.771Z,79.70
2018-06-01T05:58:50.916Z,84.97
2018-06-01T06:01:20.122Z,81.97
2018-06-01T06:03:49.338Z,79.00
2018-06-01T06:06:18.453Z,80.63
2018-06-01T06:08:47.640Z,82.20
2018-06-01T06:11:16.925Z,80.70
2018-06-01T06:13:46.099Z,82.20
2018-06-01T06:16:15.242Z,80.57
2018-06-01T06:18:44.353Z,81.07
2018-06-01T06:21:13.468Z,81.20
2018-06-01T06:23:42.652Z,83.90
2018-06-01T06:26:11.791Z,80.77
2018-06-01T06:28:41.472Z,81.43
2018-06-01T06:31:10.640Z,80.07
2018-06-01T06:33:39.755Z,78.27
2018-06-01T06:36:08.908Z,82.37
2018-06-01T06:38:38.034Z,85.63
2018-06-01T06:41:07.218Z,80.27
2018-06-01T06:43:36.362Z,79.17
2018-06-01T06:46:05.502Z,78.00
2018-06-01T06:48:34.624Z,75.97
2018-06-01T06:51:03.798Z,81.60
2018-06-01T06:53:32.924Z,80.33
2018-06-01T06:56:02.040Z,79.00
2018-06-01T06:58:31.211Z,76.13
2018-06-01T07:01:00.324Z,77.53
2018-06-01T07:03:29.451Z,77.73
2018-06-01T07:05:58.651Z,81.63
2018-06-01T07:08:27.784Z,76.57
2018-06-01T07:10:56.929Z,79.80
2018-06-01T07:13:26.091Z,80.60
2018-06-01T07:15:55.275Z,79.93
2018-06-01T07:18:24.415Z,77.17
2018-06-01T07:20:53.576Z,78.80
2018-06-01T07:23:22.739Z,80.40
2018-06-01T07:25:51.883Z,75.97
2018-06-01T07:28:21.076Z,77.07
2018-06-01T07:30:50.404Z,76.80
2018-06-01T07:33:19.618Z,76.90
2018-06-01T07:35:48.704Z,78.67
2018-06-01T07:38:17.848Z,76.53
2018-06-01T07:40:47.020Z,76.40
2018-06-01T07:43:16.148Z,77.00
2018-06-01T07:45:45.270Z,77.57
2018-06-01T07:48:14.439Z,76.40
2018-06-01T07:50:43.593Z,77.00
2018-06-01T07:53:12.711Z,77.07
2018-06-01T07:55:41.864Z,77.00
2018-06-01T07:58:10.991Z,78.80
2018-06-01T08:00:40.128Z,77.27
2018-06-01T08:03:09.366Z,77.43
2018-06-01T08:05:38.489Z,76.40
2018-06-01T08:08:07.639Z,77.27
2018-06-01T08:10:36.814Z,77.90
2018-06-01T08:13:05.953Z,76.97
2018-06-01T08:15:35.092Z,82.50
2018-06-01T08:18:04.248Z,77.63
2018-06-01T08:20:33.357Z,83.67
2018-06-01T08:23:02.508Z,81.27
2018-06-01T08:25:31.721Z,79.27
2018-06-01T08:28:00.848Z,79.57
2018-06-01T08:30:29.977Z,79.67
2018-06-01T08:32:59.118Z,75.73
2018-06-01T08:35:28.352Z,77.17
2018-06-01T08:37:57.976Z,76.07
2018-06-01T08:40:27.298Z,78.30
2018-06-01T08:42:56.408Z,78.67
2018-06-01T08:45:25.516Z,81.23
2018-06-01T08:47:54.690Z,78.73
2018-06-01T08:50:23.819Z,75.37
2018-06-01T08:52:52.936Z,76.97
2018-06-01T08:55:22.102Z,78.30
2018-06-01T08:57:51.246Z,81.97
2018-06-01T09:00:20.421Z,80.57
2018-06-01T09:02:49.542Z,83.00
2018-06-01T15:51:20.165Z,80.20
2018-06-01T15:53:49.341Z,81.17
2018-06-01T15:56:18.471Z,83.40
2018-06-01T15:58:47.650Z,84.10
2018-06-01T16:01:16.820Z,83.20
2018-06-01T16:03:45.936Z,84.43
2018-06-01T16:06:15.121Z,80.80
2018-06-01T16:08:44.252Z,82.50
2018-06-01T16:11:13.427Z,79.80
2018-06-01T16:13:42.571Z,81.47
2018-06-01T16:16:11.713Z,80.57
2018-06-01T16:18:40.877Z,77.20
2018-06-01T16:21:09.989Z,77.27
2018-06-01T16:23:39.114Z,80.13
2018-06-01T16:26:08.257Z,78.20
2018-06-01T16:28:37.384Z,76.97
2018-06-01T16:31:06.515Z,79.10
2018-06-01T16:33:35.675Z,80.27
2018-06-01T16:36:04.803Z,78.20
2018-06-01T16:38:33.932Z,79.13
2018-06-01T16:41:03.072Z,84.63
2018-06-01T16:43:32.220Z,100.17
2018-06-01T16:46:01.349Z,79.60
2018-06-01T16:48:30.535Z,77.23
2018-06-01T16:50:59.711Z,77.27
2018-06-01T16:53:28.835Z,79.00
2018-06-01T16:55:58.012Z,79.70
2018-06-01T16:58:27.153Z,78.90
2018-06-01T17:00:56.294Z,82.20
2018-06-01T17:03:25.481Z,82.67
2018-06-01T17:05:54.629Z,83.40
2018-06-01T17:08:23.812Z,83.73
2018-06-01T17:10:52.992Z,82.17
2018-06-01T17:13:22.147Z,78.20
2018-06-01T17:15:51.292Z,78.67
2018-06-01T17:18:20.413Z,82.60
2018-06-01T17:20:49.580Z,83.30
2018-06-01T17:23:18.717Z,98.47
2018-06-01T17:25:47.876Z,81.47
2018-06-01T17:28:17.033Z,87.23
2018-06-01T17:30:46.173Z,90.80
2018-06-01T17:33:15.308Z,93.90
2018-06-01T17:35:44.478Z,93.20
2018-06-01T17:38:13.617Z,104.70
2018-06-01T17:40:42.905Z,82.07
2018-06-01T17:43:12.021Z,103.57
2018-06-01T17:45:41.160Z,83.93
2018-06-01T17:48:10.348Z,76.70
2018-06-01T17:50:39.534Z,76.67
2018-06-01T17:53:08.628Z,77.23
2018-06-01T17:55:37.744Z,76.50
2018-06-01T17:58:06.921Z,80.83
2018-06-01T18:00:36.085Z,77.73
2018-06-01T18:03:05.217Z,79.30
2018-06-01T18:05:34.354Z,81.30
2018-06-01T18:08:03.507Z,80.17
2018-06-01T18:10:32.620Z,78.53
2018-06-01T18:13:01.778Z,77.77
2018-06-01T18:15:30.976Z,78.47
2018-06-01T18:18:00.119Z,79.10
2018-06-01T18:20:29.253Z,90.00
2018-06-01T18:22:58.438Z,97.43
2018-06-01T18:25:27.556Z,88.57
2018-06-01T18:27:56.682Z,89.30
2018-06-01T18:30:25.844Z,83.00
2018-06-01T18:32:54.956Z,80.60
2018-06-01T18:35:24.138Z,79.37
2018-06-01T18:37:53.296Z,78.97
2018-06-01T18:40:22.419Z,77.07
2018-06-01T18:42:51.583Z,80.57
2018-06-01T18:45:20.740Z,77.57
2018-06-01T18:47:49.889Z,77.90
2018-06-01T18:50:19.061Z,77.70
2018-06-01T18:52:48.207Z,78.07
2018-06-01T18:55:17.352Z,80.00
2018-06-01T18:57:46.494Z,76.97
2018-06-01T19:00:15.634Z,81.60
2018-06-01T19:02:44.799Z,80.00
2018-06-01T19:05:13.924Z,83.47
2018-06-01T19:07:43.043Z,77.83
2018-06-01T19:10:12.206Z,78.97
2018-06-01T19:12:41.346Z,78.77
2018-06-01T19:15:10.502Z,78.77
2018-06-01T19:17:39.651Z,80.40
2018-06-01T19:20:08.800Z,78.03
2018-06-01T19:22:37.920Z,80.10
2018-06-01T19:25:07.052Z,76.77
2018-06-01T19:27:36.231Z,81.13
2018-06-01T19:30:05.440Z,80.80
2018-06-01T19:32:34.662Z,79.57
2018-06-01T19:35:03.782Z,77.37
2018-06-01T19:37:33.220Z,78.30
2018-06-01T19:40:02.369Z,78.47
2018-06-01T19:42:31.540Z,77.17
2018-06-01T19:45:00.677Z,78.47
2018-06-01T19:47:29.840Z,79.13
2018-06-01T19:49:59.015Z,79.73
2018-06-01T19:52:28.119Z,79.37
2018-06-01T19:54:57.267Z,79.57
2018-06-01T19:57:26.396Z,79.57
2018-06-01T19:59:55.527Z,85.57
2018-06-01T20:02:24.705Z,85.50
2018-06-01T20:04:53.869Z,88.63
2018-06-01T20:07:22.987Z,87.07
2018-06-01T20:09:52.104Z,82.50
2018-06-01T20:12:21.241Z,83.73
2018-06-01T20:14:50.432Z,81.27
2018-06-01T20:17:19.615Z,79.33
2018-06-01T20:19:48.724Z,78.20
2018-06-01T20:22:17.887Z,79.30
2018-06-01T20:24:47.046Z,81.60
2018-06-01T20:27:16.185Z,78.70
2018-06-01T20:29:45.361Z,81.70
2018-06-01T20:32:14.476Z,77.40
2018-06-01T20:34:43.592Z,79.03
2018-06-01T20:37:12.703Z,79.40
2018-06-01T20:39:41.828Z,84.33
2018-06-01T20:42:11.013Z,79.10
2018-06-01T20:44:40.145Z,79.97
2018-06-01T20:47:09.285Z,81.63
2018-06-01T20:49:38.444Z,82.13
2018-06-01T20:52:07.566Z,79.90
2018-06-01T20:54:36.713Z,83.27
2018-06-01T20:57:05.897Z,81.60
2018-06-01T20:59:35.016Z,81.60
2018-06-01T21:02:04.152Z,79.47
2018-06-01T21:04:33.310Z,82.10
2018-06-01T21:07:02.424Z,79.43
2018-06-01T21:09:31.634Z,81.00
2018-06-01T21:12:00.800Z,79.53
2018-06-01T21:14:29.899Z,79.27
2018-06-01T21:16:59.068Z,80.47
2018-06-01T21:19:28.210Z,79.97
2018-06-01T21:21:57.326Z,83.00
2018-06-01T21:24:26.555Z,83.80
2018-06-01T21:26:55.712Z,91.07
2018-06-01T21:29:24.847Z,87.07
2018-06-01T21:31:54.083Z,86.70
2018-06-01T21:34:23.209Z,85.80
2018-06-01T21:36:52.335Z,90.63
2018-06-01T21:39:21.584Z,87.53
2018-06-01T21:41:50.729Z,90.10
2018-06-01T21:44:19.870Z,87.10
2018-06-01T21:46:49.034Z,87.03
2018-06-01T21:49:18.184Z,85.00
2018-06-01T21:51:47.338Z,90.17
2018-06-01T21:54:16.537Z,86.30
2018-06-01T21:56:46.559Z,89.80
2018-06-01T21:59:15.737Z,92.53
2018-06-01T22:01:44.873Z,83.40
2018-06-01T22:04:14.017Z,85.40
2018-06-01T22:06:43.215Z,88.23
2018-06-01T22:09:12.811Z,92.07
2018-06-01T22:11:41.946Z,94.63
2018-06-01T22:14:11.117Z,94.87
2018-06-01T22:16:40.277Z,95.50
2018-06-01T22:19:09.437Z,93.57
2018-06-01T22:21:38.583Z,93.77
2018-06-01T22:24:07.837Z,90.07
2018-06-01T22:26:37.006Z,91.17
2018-06-01T22:29:06.175Z,93.47
2018-06-01T22:31:35.350Z,91.77
2018-06-01T22:34:04.492Z,91.87
2018-06-01T22:36:33.649Z,94.03
2018-06-01T22:39:02.839Z,92.07
2018-06-01T22:41:31.972Z,90.60
2018-06-01T22:44:01.229Z,89.33
2018-06-01T22:46:30.392Z,94.23
2018-06-01T22:48:59.558Z,96.37
2018-06-01T22:51:28.721Z,95.77
2018-06-01T22:53:57.869Z,95.40
2018-06-01T22:56:27.029Z,118.77
2018-06-01T22:58:56.168Z,98.03
2018-06-01T23:01:25.355Z,106.47
2018-06-01T23:03:54.571Z,116.00
2018-06-01T23:06:23.715Z,109.17
2018-06-01T23:08:52.905Z,144.60
2018-06-01T23:11:22.060Z,168.47
2018-06-01T23:13:51.204Z,141.70
2018-06-01T23:16:20.425Z,121.40
2018-06-01T23:18:49.554Z,110.10
2018-06-01T23:21:18.739Z,115.00
2018-06-01T23:23:47.895Z,112.47
2018-06-01T23:26:17.118Z,103.20
2018-06-01T23:28:46.305Z,103.57
2018-06-01T23:31:15.495Z,104.07
2018-06-01T23:33:44.640Z,97.07
2018-06-01T23:36:13.800Z,103.00
2018-06-01T23:38:42.991Z,96.97
2018-06-01T23:41:12.613Z,100.47
2018-06-01T23:43:41.781Z,97.10
2018-06-01T23:46:10.932Z,98.23
2018-06-01T23:48:40.121Z,104.20
2018-06-01T23:51:09.275Z,98.03
2018-06-01T23:53:38.390Z,93.70
2018-06-01T23:56:07.580Z,94.40
2018-06-01T23:58:36.704Z,95.13
